sensor_id;sensor_type;location;lat;lon;timestamp;P1;durP1;ratioP1;P2;durP2;ratioP2
64225;SDS011;50545;56.064;26.178;2023-03-25T00:00:17;6.60;;;1.90;;
64225;SDS011;50545;56.064;26.178;2023-03-25T00:02:49;6.47;;;2.33;;
64225;SDS011;50545;56.064;26.178;2023-03-25T00:05:20;4.30;;;1.55;;
64225;SDS011;50545;56.064;26.178;2023-03-25T00:07:49;6.85;;;1.92;;
64225;SDS011;50545;56.064;26.178;2023-03-25T00:10:18;4.70;;;1.73;;
64225;SDS011;50545;56.064;26.178;2023-03-25T00:12:45;3.47;;;1.70;;
64225;SDS011;50545;56.064;26.178;2023-03-25T00:15:13;6.15;;;1.95;;
64225;SDS011;50545;56.064;26.178;2023-03-25T00:17:41;4.45;;;1.77;;
64225;SDS011;50545;56.064;26.178;2023-03-25T00:20:09;6.63;;;1.98;;
64225;SDS011;50545;56.064;26.178;2023-03-25T00:22:37;8.77;;;2.65;;
64225;SDS011;50545;56.064;26.178;2023-03-25T00:25:11;7.03;;;2.25;;
64225;SDS011;50545;56.064;26.178;2023-03-25T00:27:45;4.38;;;1.90;;
64225;SDS011;50545;56.064;26.178;2023-03-25T00:30:14;7.32;;;2.05;;
64225;SDS011;50545;56.064;26.178;2023-03-25T00:32:43;4.32;;;1.83;;
64225;SDS011;50545;56.064;26.178;2023-03-25T00:35:19;6.22;;;2.15;;
64225;SDS011;50545;56.064;26.178;2023-03-25T00:37:47;7.68;;;2.03;;
64225;SDS011;50545;56.064;26.178;2023-03-25T00:40:23;7.53;;;1.88;;
64225;SDS011;50545;56.064;26.178;2023-03-25T00:42:50;7.10;;;2.38;;
64225;SDS011;50545;56.064;26.178;2023-03-25T00:45:17;5.70;;;1.95;;
64225;SDS011;50545;56.064;26.178;2023-03-25T00:47:45;8.88;;;2.00;;
64225;SDS011;50545;56.064;26.178;2023-03-25T00:50:12;6.22;;;1.77;;
64225;SDS011;50545;56.064;26.178;2023-03-25T00:52:39;6.38;;;2.13;;
64225;SDS011;50545;56.064;26.178;2023-03-25T00:55:07;7.70;;;1.83;;
64225;SDS011;50545;56.064;26.178;2023-03-25T00:57:34;9.75;;;2.47;;
64225;SDS011;50545;56.064;26.178;2023-03-25T01:00:05;6.95;;;2.50;;
64225;SDS011;50545;56.064;26.178;2023-03-25T01:02:35;6.20;;;1.98;;
64225;SDS011;50545;56.064;26.178;2023-03-25T01:05:05;6.82;;;1.88;;
64225;SDS011;50545;56.064;26.178;2023-03-25T01:07:32;5.75;;;2.03;;
64225;SDS011;50545;56.064;26.178;2023-03-25T01:10:01;8.23;;;2.33;;
64225;SDS011;50545;56.064;26.178;2023-03-25T01:12:30;7.00;;;2.28;;
64225;SDS011;50545;56.064;26.178;2023-03-25T01:14:57;7.70;;;1.90;;
64225;SDS011;50545;56.064;26.178;2023-03-25T01:17:24;7.63;;;2.55;;
64225;SDS011;50545;56.064;26.178;2023-03-25T01:19:51;8.93;;;2.10;;
64225;SDS011;50545;56.064;26.178;2023-03-25T01:22:19;4.75;;;1.60;;
64225;SDS011;50545;56.064;26.178;2023-03-25T01:24:46;5.82;;;2.17;;
64225;SDS011;50545;56.064;26.178;2023-03-25T01:27:13;6.82;;;2.22;;
64225;SDS011;50545;56.064;26.178;2023-03-25T01:29:40;4.72;;;1.77;;
64225;SDS011;50545;56.064;26.178;2023-03-25T01:32:08;7.82;;;2.40;;
64225;SDS011;50545;56.064;26.178;2023-03-25T01:34:35;5.38;;;2.03;;
64225;SDS011;50545;56.064;26.178;2023-03-25T01:37:04;8.65;;;2.33;;
64225;SDS011;50545;56.064;26.178;2023-03-25T01:39:32;6.15;;;1.88;;
64225;SDS011;50545;56.064;26.178;2023-03-25T01:41:59;6.43;;;2.30;;
64225;SDS011;50545;56.064;26.178;2023-03-25T01:46:55;5.75;;;2.05;;
64225;SDS011;50545;56.064;26.178;2023-03-25T01:49:30;8.18;;;2.67;;
64225;SDS011;50545;56.064;26.178;2023-03-25T01:52:06;7.43;;;2.10;;
64225;SDS011;50545;56.064;26.178;2023-03-25T01:54:43;5.25;;;2.20;;
64225;SDS011;50545;56.064;26.178;2023-03-25T01:57:12;5.05;;;1.85;;
64225;SDS011;50545;56.064;26.178;2023-03-25T01:59:43;9.68;;;2.33;;
64225;SDS011;50545;56.064;26.178;2023-03-25T02:02:11;7.22;;;2.60;;
64225;SDS011;50545;56.064;26.178;2023-03-25T02:07:37;8.60;;;2.08;;
64225;SDS011;50545;56.064;26.178;2023-03-25T02:10:09;6.18;;;2.17;;
64225;SDS011;50545;56.064;26.178;2023-03-25T02:12:36;7.55;;;2.42;;
64225;SDS011;50545;56.064;26.178;2023-03-25T02:15:04;5.93;;;1.88;;
64225;SDS011;50545;56.064;26.178;2023-03-25T02:29:35;8.93;;;2.28;;
64225;SDS011;50545;56.064;26.178;2023-03-25T02:32:18;6.40;;;2.20;;
64225;SDS011;50545;56.064;26.178;2023-03-25T02:41:21;9.27;;;1.75;;
64225;SDS011;50545;56.064;26.178;2023-03-25T02:44:38;9.23;;;2.47;;
64225;SDS011;50545;56.064;26.178;2023-03-25T02:47:10;9.13;;;2.38;;
64225;SDS011;50545;56.064;26.178;2023-03-25T02:49:47;8.65;;;2.13;;
64225;SDS011;50545;56.064;26.178;2023-03-25T02:52:25;8.90;;;2.05;;
64225;SDS011;50545;56.064;26.178;2023-03-25T02:55:03;9.57;;;2.50;;
64225;SDS011;50545;56.064;26.178;2023-03-25T02:57:38;9.15;;;2.55;;
64225;SDS011;50545;56.064;26.178;2023-03-25T03:00:08;7.05;;;1.52;;
64225;SDS011;50545;56.064;26.178;2023-03-25T03:02:52;7.13;;;1.95;;
64225;SDS011;50545;56.064;26.178;2023-03-25T03:05:31;5.50;;;2.20;;
64225;SDS011;50545;56.064;26.178;2023-03-25T03:19:32;7.50;;;2.17;;
64225;SDS011;50545;56.064;26.178;2023-03-25T03:22:12;7.15;;;2.22;;
64225;SDS011;50545;56.064;26.178;2023-03-25T03:27:48;9.60;;;2.33;;
64225;SDS011;50545;56.064;26.178;2023-03-25T03:30:26;7.72;;;1.95;;
64225;SDS011;50545;56.064;26.178;2023-03-25T03:35:36;8.02;;;2.00;;
64225;SDS011;50545;56.064;26.178;2023-03-25T03:38:10;8.68;;;2.42;;
64225;SDS011;50545;56.064;26.178;2023-03-25T03:40:40;10.43;;;2.38;;
64225;SDS011;50545;56.064;26.178;2023-03-25T03:43:14;11.93;;;2.30;;
64225;SDS011;50545;56.064;26.178;2023-03-25T03:45:46;6.43;;;2.00;;
64225;SDS011;50545;56.064;26.178;2023-03-25T03:48:26;5.38;;;1.60;;
64225;SDS011;50545;56.064;26.178;2023-03-25T03:51:09;13.23;;;2.67;;
64225;SDS011;50545;56.064;26.178;2023-03-25T03:53:46;8.93;;;2.20;;
64225;SDS011;50545;56.064;26.178;2023-03-25T03:56:25;7.93;;;1.83;;
64225;SDS011;50545;56.064;26.178;2023-03-25T03:59:13;7.82;;;2.08;;
64225;SDS011;50545;56.064;26.178;2023-03-25T04:01:47;8.93;;;2.30;;
64225;SDS011;50545;56.064;26.178;2023-03-25T04:04:20;6.25;;;1.52;;
64225;SDS011;50545;56.064;26.178;2023-03-25T04:12:24;8.65;;;1.70;;
64225;SDS011;50545;56.064;26.178;2023-03-25T04:14:59;12.65;;;2.30;;
64225;SDS011;50545;56.064;26.178;2023-03-25T04:17:28;11.93;;;2.60;;
64225;SDS011;50545;56.064;26.178;2023-03-25T04:19:59;6.73;;;1.93;;
64225;SDS011;50545;56.064;26.178;2023-03-25T04:22:32;8.90;;;1.83;;
64225;SDS011;50545;56.064;26.178;2023-03-25T04:25:05;8.43;;;2.35;;
64225;SDS011;50545;56.064;26.178;2023-03-25T04:27:33;5.95;;;2.20;;
64225;SDS011;50545;56.064;26.178;2023-03-25T04:30:06;6.65;;;2.17;;
64225;SDS011;50545;56.064;26.178;2023-03-25T04:32:34;5.60;;;1.65;;
64225;SDS011;50545;56.064;26.178;2023-03-25T04:35:02;10.55;;;2.55;;
64225;SDS011;50545;56.064;26.178;2023-03-25T04:37:29;7.93;;;2.15;;
64225;SDS011;50545;56.064;26.178;2023-03-25T04:39:59;8.57;;;2.43;;
64225;SDS011;50545;56.064;26.178;2023-03-25T04:42:26;7.78;;;1.52;;
64225;SDS011;50545;56.064;26.178;2023-03-25T04:44:58;8.82;;;2.05;;
64225;SDS011;50545;56.064;26.178;2023-03-25T04:47:26;3.85;;;1.52;;
64225;SDS011;50545;56.064;26.178;2023-03-25T04:49:53;8.38;;;1.95;;
64225;SDS011;50545;56.064;26.178;2023-03-25T04:52:20;4.97;;;1.67;;
64225;SDS011;50545;56.064;26.178;2023-03-25T04:54:48;9.00;;;1.90;;
64225;SDS011;50545;56.064;26.178;2023-03-25T04:57:15;11.02;;;2.55;;
64225;SDS011;50545;56.064;26.178;2023-03-25T04:59:42;6.53;;;1.70;;
64225;SDS011;50545;56.064;26.178;2023-03-25T05:02:09;7.43;;;2.20;;
64225;SDS011;50545;56.064;26.178;2023-03-25T05:04:39;10.18;;;2.60;;
64225;SDS011;50545;56.064;26.178;2023-03-25T05:07:08;6.63;;;1.90;;
64225;SDS011;50545;56.064;26.178;2023-03-25T05:09:36;7.70;;;1.52;;
64225;SDS011;50545;56.064;26.178;2023-03-25T05:12:03;7.82;;;2.10;;
64225;SDS011;50545;56.064;26.178;2023-03-25T05:14:30;9.63;;;2.10;;
64225;SDS011;50545;56.064;26.178;2023-03-25T05:16:57;10.80;;;2.42;;
64225;SDS011;50545;56.064;26.178;2023-03-25T05:19:26;10.65;;;2.50;;
64225;SDS011;50545;56.064;26.178;2023-03-25T05:21:54;6.55;;;1.88;;
64225;SDS011;50545;56.064;26.178;2023-03-25T05:24:21;6.60;;;1.83;;
64225;SDS011;50545;56.064;26.178;2023-03-25T05:26:49;8.00;;;2.17;;
64225;SDS011;50545;56.064;26.178;2023-03-25T05:29:16;10.65;;;2.35;;
64225;SDS011;50545;56.064;26.178;2023-03-25T05:31:44;8.73;;;2.40;;
64225;SDS011;50545;56.064;26.178;2023-03-25T05:34:12;7.60;;;2.17;;
64225;SDS011;50545;56.064;26.178;2023-03-25T05:36:40;5.50;;;1.50;;
64225;SDS011;50545;56.064;26.178;2023-03-25T05:39:07;8.68;;;2.50;;
64225;SDS011;50545;56.064;26.178;2023-03-25T05:41:36;9.25;;;2.10;;
64225;SDS011;50545;56.064;26.178;2023-03-25T05:44:08;8.18;;;2.40;;
64225;SDS011;50545;56.064;26.178;2023-03-25T05:46:41;8.15;;;2.35;;
64225;SDS011;50545;56.064;26.178;2023-03-25T05:49:08;9.32;;;1.95;;
64225;SDS011;50545;56.064;26.178;2023-03-25T05:51:35;8.48;;;2.20;;
64225;SDS011;50545;56.064;26.178;2023-03-25T05:54:03;8.05;;;1.90;;
64225;SDS011;50545;56.064;26.178;2023-03-25T05:56:37;10.60;;;2.30;;
64225;SDS011;50545;56.064;26.178;2023-03-25T05:59:05;8.50;;;2.30;;
64225;SDS011;50545;56.064;26.178;2023-03-25T06:01:33;8.45;;;2.40;;
64225;SDS011;50545;56.064;26.178;2023-03-25T06:04:03;11.77;;;2.47;;
64225;SDS011;50545;56.064;26.178;2023-03-25T06:06:35;9.18;;;2.45;;
64225;SDS011;50545;56.064;26.178;2023-03-25T06:09:03;8.65;;;2.47;;
64225;SDS011;50545;56.064;26.178;2023-03-25T06:11:31;7.82;;;1.88;;
64225;SDS011;50545;56.064;26.178;2023-03-25T06:14:04;11.27;;;2.22;;
64225;SDS011;50545;56.064;26.178;2023-03-25T06:16:32;5.82;;;1.90;;
64225;SDS011;50545;56.064;26.178;2023-03-25T06:19:01;8.65;;;2.10;;
64225;SDS011;50545;56.064;26.178;2023-03-25T06:21:32;11.60;;;2.28;;
64225;SDS011;50545;56.064;26.178;2023-03-25T06:23:59;2.90;;;1.00;;
64225;SDS011;50545;56.064;26.178;2023-03-25T06:26:27;12.90;;;2.50;;
64225;SDS011;50545;56.064;26.178;2023-03-25T06:28:55;6.65;;;1.90;;
64225;SDS011;50545;56.064;26.178;2023-03-25T06:31:24;8.20;;;2.47;;
64225;SDS011;50545;56.064;26.178;2023-03-25T06:33:53;9.48;;;2.75;;
64225;SDS011;50545;56.064;26.178;2023-03-25T06:36:21;7.75;;;1.92;;
64225;SDS011;50545;56.064;26.178;2023-03-25T06:38:51;8.88;;;2.10;;
64225;SDS011;50545;56.064;26.178;2023-03-25T06:41:19;8.18;;;2.30;;
64225;SDS011;50545;56.064;26.178;2023-03-25T06:43:46;7.90;;;2.03;;
64225;SDS011;50545;56.064;26.178;2023-03-25T06:46:14;7.28;;;1.77;;
64225;SDS011;50545;56.064;26.178;2023-03-25T06:48:42;6.93;;;2.15;;
64225;SDS011;50545;56.064;26.178;2023-03-25T06:51:09;8.25;;;2.00;;
64225;SDS011;50545;56.064;26.178;2023-03-25T06:53:37;6.70;;;2.10;;
64225;SDS011;50545;56.064;26.178;2023-03-25T06:56:04;3.55;;;1.52;;
64225;SDS011;50545;56.064;26.178;2023-03-25T06:58:32;10.68;;;3.00;;
64225;SDS011;50545;56.064;26.178;2023-03-25T07:01:02;6.63;;;1.90;;
64225;SDS011;50545;56.064;26.178;2023-03-25T07:03:33;7.93;;;2.03;;
64225;SDS011;50545;56.064;26.178;2023-03-25T07:06:02;10.38;;;2.60;;
64225;SDS011;50545;56.064;26.178;2023-03-25T07:08:31;6.82;;;1.77;;
64225;SDS011;50545;56.064;26.178;2023-03-25T07:11:02;6.13;;;2.13;;
64225;SDS011;50545;56.064;26.178;2023-03-25T07:13:31;10.77;;;2.53;;
64225;SDS011;50545;56.064;26.178;2023-03-25T07:15:59;9.23;;;2.30;;
64225;SDS011;50545;56.064;26.178;2023-03-25T07:18:26;7.28;;;1.98;;
64225;SDS011;50545;56.064;26.178;2023-03-25T07:20:54;11.48;;;2.65;;
64225;SDS011;50545;56.064;26.178;2023-03-25T07:23:21;12.05;;;2.33;;
64225;SDS011;50545;56.064;26.178;2023-03-25T07:25:48;8.32;;;2.25;;
64225;SDS011;50545;56.064;26.178;2023-03-25T07:28:16;6.57;;;1.92;;
64225;SDS011;50545;56.064;26.178;2023-03-25T07:30:44;12.18;;;2.83;;
64225;SDS011;50545;56.064;26.178;2023-03-25T07:33:11;8.07;;;2.13;;
64225;SDS011;50545;56.064;26.178;2023-03-25T07:35:39;7.82;;;2.05;;
64225;SDS011;50545;56.064;26.178;2023-03-25T07:38:06;4.90;;;1.52;;
64225;SDS011;50545;56.064;26.178;2023-03-25T07:40:35;11.23;;;2.95;;
64225;SDS011;50545;56.064;26.178;2023-03-25T07:43:02;9.77;;;2.35;;
64225;SDS011;50545;56.064;26.178;2023-03-25T07:45:30;14.45;;;2.50;;
64225;SDS011;50545;56.064;26.178;2023-03-25T07:48:10;11.50;;;2.70;;
64225;SDS011;50545;56.064;26.178;2023-03-25T07:50:40;10.80;;;2.35;;
64225;SDS011;50545;56.064;26.178;2023-03-25T07:53:09;10.93;;;2.42;;
64225;SDS011;50545;56.064;26.178;2023-03-25T07:55:36;10.82;;;2.58;;
64225;SDS011;50545;56.064;26.178;2023-03-25T07:58:03;11.85;;;3.05;;
64225;SDS011;50545;56.064;26.178;2023-03-25T08:00:31;9.07;;;2.00;;
64225;SDS011;50545;56.064;26.178;2023-03-25T08:02:58;11.25;;;2.45;;
64225;SDS011;50545;56.064;26.178;2023-03-25T08:05:25;11.95;;;2.83;;
64225;SDS011;50545;56.064;26.178;2023-03-25T08:07:53;13.35;;;3.10;;
64225;SDS011;50545;56.064;26.178;2023-03-25T08:10:21;11.05;;;2.58;;
64225;SDS011;50545;56.064;26.178;2023-03-25T08:12:50;8.32;;;2.20;;
64225;SDS011;50545;56.064;26.178;2023-03-25T08:17:50;9.07;;;2.00;;
64225;SDS011;50545;56.064;26.178;2023-03-25T08:20:19;12.80;;;2.25;;
64225;SDS011;50545;56.064;26.178;2023-03-25T08:22:47;10.70;;;2.08;;
64225;SDS011;50545;56.064;26.178;2023-03-25T08:25:14;5.85;;;1.80;;
64225;SDS011;50545;56.064;26.178;2023-03-25T08:27:41;7.15;;;2.00;;
64225;SDS011;50545;56.064;26.178;2023-03-25T08:30:09;10.90;;;2.45;;
64225;SDS011;50545;56.064;26.178;2023-03-25T08:32:37;11.05;;;2.70;;
64225;SDS011;50545;56.064;26.178;2023-03-25T08:35:06;10.30;;;2.10;;
64225;SDS011;50545;56.064;26.178;2023-03-25T08:37:34;5.72;;;2.22;;
64225;SDS011;50545;56.064;26.178;2023-03-25T08:40:03;10.20;;;2.60;;
64225;SDS011;50545;56.064;26.178;2023-03-25T08:42:35;10.02;;;2.05;;
64225;SDS011;50545;56.064;26.178;2023-03-25T08:45:03;9.30;;;2.05;;
64225;SDS011;50545;56.064;26.178;2023-03-25T08:47:31;6.53;;;1.60;;
64225;SDS011;50545;56.064;26.178;2023-03-25T08:49:58;6.72;;;1.73;;
64225;SDS011;50545;56.064;26.178;2023-03-25T08:52:26;8.23;;;2.20;;
64225;SDS011;50545;56.064;26.178;2023-03-25T08:54:53;5.05;;;1.38;;
64225;SDS011;50545;56.064;26.178;2023-03-25T08:57:20;7.95;;;1.83;;
64225;SDS011;50545;56.064;26.178;2023-03-25T08:59:48;7.95;;;2.33;;
64225;SDS011;50545;56.064;26.178;2023-03-25T09:02:15;7.22;;;1.80;;
64225;SDS011;50545;56.064;26.178;2023-03-25T09:04:43;9.35;;;2.08;;
64225;SDS011;50545;56.064;26.178;2023-03-25T09:07:10;10.75;;;2.42;;
64225;SDS011;50545;56.064;26.178;2023-03-25T09:09:38;9.38;;;2.38;;
64225;SDS011;50545;56.064;26.178;2023-03-25T09:12:06;8.65;;;2.30;;
64225;SDS011;50545;56.064;26.178;2023-03-25T09:14:34;6.57;;;2.10;;
64225;SDS011;50545;56.064;26.178;2023-03-25T09:17:02;7.28;;;1.85;;
64225;SDS011;50545;56.064;26.178;2023-03-25T09:19:34;6.20;;;1.60;;
64225;SDS011;50545;56.064;26.178;2023-03-25T09:22:04;5.40;;;1.50;;
64225;SDS011;50545;56.064;26.178;2023-03-25T09:24:32;7.15;;;2.03;;
64225;SDS011;50545;56.064;26.178;2023-03-25T09:27:01;8.48;;;2.50;;
64225;SDS011;50545;56.064;26.178;2023-03-25T09:29:29;9.45;;;2.22;;
64225;SDS011;50545;56.064;26.178;2023-03-25T09:31:56;9.10;;;1.90;;
64225;SDS011;50545;56.064;26.178;2023-03-25T09:34:26;6.70;;;2.25;;
64225;SDS011;50545;56.064;26.178;2023-03-25T09:36:54;5.43;;;1.45;;
64225;SDS011;50545;56.064;26.178;2023-03-25T09:39:21;6.78;;;1.95;;
64225;SDS011;50545;56.064;26.178;2023-03-25T09:47:38;5.63;;;1.75;;
64225;SDS011;50545;56.064;26.178;2023-03-25T09:50:11;10.60;;;2.85;;
64225;SDS011;50545;56.064;26.178;2023-03-25T09:55:21;6.32;;;1.77;;
64225;SDS011;50545;56.064;26.178;2023-03-25T09:57:54;10.13;;;2.47;;
64225;SDS011;50545;56.064;26.178;2023-03-25T10:00:41;8.10;;;2.50;;
64225;SDS011;50545;56.064;26.178;2023-03-25T10:03:54;6.55;;;2.10;;
64225;SDS011;50545;56.064;26.178;2023-03-25T10:11:24;5.90;;;1.80;;
64225;SDS011;50545;56.064;26.178;2023-03-25T10:14:27;8.93;;;1.92;;
64225;SDS011;50545;56.064;26.178;2023-03-25T10:25:42;6.57;;;2.00;;
64225;SDS011;50545;56.064;26.178;2023-03-25T10:28:16;9.25;;;1.90;;
64225;SDS011;50545;56.064;26.178;2023-03-25T10:30:47;7.22;;;2.05;;
64225;SDS011;50545;56.064;26.178;2023-03-25T10:36:02;8.88;;;2.22;;
64225;SDS011;50545;56.064;26.178;2023-03-25T10:38:32;7.00;;;1.92;;
64225;SDS011;50545;56.064;26.178;2023-03-25T10:41:18;7.10;;;2.13;;
64225;SDS011;50545;56.064;26.178;2023-03-25T10:43:51;6.82;;;1.83;;
64225;SDS011;50545;56.064;26.178;2023-03-25T10:46:23;9.32;;;2.00;;
64225;SDS011;50545;56.064;26.178;2023-03-25T10:48:57;10.20;;;1.85;;
64225;SDS011;50545;56.064;26.178;2023-03-25T10:51:26;8.27;;;2.13;;
64225;SDS011;50545;56.064;26.178;2023-03-25T10:53:59;9.35;;;2.00;;
64225;SDS011;50545;56.064;26.178;2023-03-25T10:58:57;7.65;;;1.92;;
64225;SDS011;50545;56.064;26.178;2023-03-25T11:04:05;5.90;;;2.05;;
64225;SDS011;50545;56.064;26.178;2023-03-25T11:06:38;7.65;;;1.73;;
64225;SDS011;50545;56.064;26.178;2023-03-25T11:11:59;6.43;;;1.60;;
64225;SDS011;50545;56.064;26.178;2023-03-25T11:14:28;7.32;;;2.30;;
64225;SDS011;50545;56.064;26.178;2023-03-25T11:16:57;6.75;;;2.17;;
64225;SDS011;50545;56.064;26.178;2023-03-25T11:19:41;12.43;;;2.10;;
64225;SDS011;50545;56.064;26.178;2023-03-25T11:22:29;8.77;;;2.45;;
64225;SDS011;50545;56.064;26.178;2023-03-25T11:25:05;9.13;;;2.17;;
64225;SDS011;50545;56.064;26.178;2023-03-25T11:27:46;6.57;;;1.85;;
64225;SDS011;50545;56.064;26.178;2023-03-25T11:30:18;9.23;;;2.50;;
64225;SDS011;50545;56.064;26.178;2023-03-25T11:33:03;7.25;;;2.20;;
64225;SDS011;50545;56.064;26.178;2023-03-25T11:35:39;8.18;;;2.40;;
64225;SDS011;50545;56.064;26.178;2023-03-25T11:38:19;8.65;;;2.67;;
64225;SDS011;50545;56.064;26.178;2023-03-25T11:40:53;8.77;;;2.50;;
64225;SDS011;50545;56.064;26.178;2023-03-25T11:43:23;7.32;;;2.38;;
64225;SDS011;50545;56.064;26.178;2023-03-25T11:45:53;5.20;;;2.10;;
64225;SDS011;50545;56.064;26.178;2023-03-25T11:48:22;6.80;;;2.00;;
64225;SDS011;50545;56.064;26.178;2023-03-25T11:50:56;7.25;;;2.30;;
64225;SDS011;50545;56.064;26.178;2023-03-25T11:53:29;4.72;;;1.90;;
64225;SDS011;50545;56.064;26.178;2023-03-25T11:55:59;7.35;;;1.77;;
64225;SDS011;50545;56.064;26.178;2023-03-25T11:58:31;9.52;;;2.35;;
64225;SDS011;50545;56.064;26.178;2023-03-25T12:01:03;8.50;;;2.05;;
64225;SDS011;50545;56.064;26.178;2023-03-25T12:03:46;5.80;;;2.20;;
64225;SDS011;50545;56.064;26.178;2023-03-25T12:06:20;7.40;;;2.00;;
64225;SDS011;50545;56.064;26.178;2023-03-25T12:08:49;7.38;;;2.28;;
64225;SDS011;50545;56.064;26.178;2023-03-25T12:11:28;6.95;;;2.00;;
64225;SDS011;50545;56.064;26.178;2023-03-25T12:14:34;8.70;;;2.40;;
64225;SDS011;50545;56.064;26.178;2023-03-25T12:30:17;8.90;;;2.47;;
64225;SDS011;50545;56.064;26.178;2023-03-25T13:00:40;6.45;;;1.90;;
64225;SDS011;50545;56.064;26.178;2023-03-25T13:05:59;4.60;;;1.65;;
64225;SDS011;50545;56.064;26.178;2023-03-25T13:09:37;6.03;;;1.67;;
64225;SDS011;50545;56.064;26.178;2023-03-25T13:11:49;6.15;;;1.90;;
64225;SDS011;50545;56.064;26.178;2023-03-25T13:14:26;5.55;;;2.00;;
64225;SDS011;50545;56.064;26.178;2023-03-25T13:16:57;9.52;;;1.90;;
64225;SDS011;50545;56.064;26.178;2023-03-25T13:19:28;5.95;;;2.20;;
64225;SDS011;50545;56.064;26.178;2023-03-25T13:22:04;6.57;;;2.10;;
64225;SDS011;50545;56.064;26.178;2023-03-25T13:24:54;4.68;;;1.60;;
64225;SDS011;50545;56.064;26.178;2023-03-25T13:27:29;3.67;;;1.60;;
64225;SDS011;50545;56.064;26.178;2023-03-25T13:30:00;6.28;;;1.80;;
64225;SDS011;50545;56.064;26.178;2023-03-25T13:38:32;6.38;;;2.35;;
64225;SDS011;50545;56.064;26.178;2023-03-25T13:43:51;7.80;;;1.65;;
64225;SDS011;50545;56.064;26.178;2023-03-25T13:46:46;4.00;;;1.75;;
64225;SDS011;50545;56.064;26.178;2023-03-25T13:51:47;7.38;;;1.90;;
64225;SDS011;50545;56.064;26.178;2023-03-25T13:54:16;7.13;;;1.90;;
64225;SDS011;50545;56.064;26.178;2023-03-25T14:02:28;4.03;;;1.67;;
64225;SDS011;50545;56.064;26.178;2023-03-25T14:13:25;4.60;;;1.27;;
64225;SDS011;50545;56.064;26.178;2023-03-25T14:16:13;4.55;;;1.58;;
64225;SDS011;50545;56.064;26.178;2023-03-25T14:18:47;5.32;;;1.63;;
64225;SDS011;50545;56.064;26.178;2023-03-25T14:21:25;7.43;;;1.60;;
64225;SDS011;50545;56.064;26.178;2023-03-25T14:24:45;4.18;;;1.75;;
64225;SDS011;50545;56.064;26.178;2023-03-25T14:27:04;7.32;;;1.65;;
64225;SDS011;50545;56.064;26.178;2023-03-25T14:29:39;6.25;;;1.95;;
64225;SDS011;50545;56.064;26.178;2023-03-25T14:34:44;5.30;;;1.80;;
64225;SDS011;50545;56.064;26.178;2023-03-25T14:37:16;3.70;;;1.35;;
64225;SDS011;50545;56.064;26.178;2023-03-25T14:39:54;3.85;;;1.38;;
64225;SDS011;50545;56.064;26.178;2023-03-25T14:42:57;3.75;;;1.27;;
64225;SDS011;50545;56.064;26.178;2023-03-25T14:45:33;5.28;;;1.90;;
64225;SDS011;50545;56.064;26.178;2023-03-25T14:48:21;4.35;;;1.52;;
64225;SDS011;50545;56.064;26.178;2023-03-25T14:56:22;2.42;;;1.50;;
64225;SDS011;50545;56.064;26.178;2023-03-25T14:58:52;2.80;;;1.38;;
64225;SDS011;50545;56.064;26.178;2023-03-25T15:01:26;2.60;;;1.35;;
64225;SDS011;50545;56.064;26.178;2023-03-25T15:04:13;3.97;;;1.52;;
64225;SDS011;50545;56.064;26.178;2023-03-25T15:07:03;1.73;;;1.00;;
64225;SDS011;50545;56.064;26.178;2023-03-25T15:09:50;3.25;;;1.30;;
64225;SDS011;50545;56.064;26.178;2023-03-25T15:12:21;2.80;;;1.10;;
64225;SDS011;50545;56.064;26.178;2023-03-25T15:14:55;2.72;;;1.10;;
64225;SDS011;50545;56.064;26.178;2023-03-25T15:22:37;3.97;;;1.08;;
64225;SDS011;50545;56.064;26.178;2023-03-25T15:25:15;1.75;;;1.20;;
64225;SDS011;50545;56.064;26.178;2023-03-25T15:27:55;2.30;;;1.45;;
64225;SDS011;50545;56.064;26.178;2023-03-25T15:56:22;3.55;;;1.60;;
64225;SDS011;50545;56.064;26.178;2023-03-25T16:01:33;2.83;;;1.42;;
64225;SDS011;50545;56.064;26.178;2023-03-25T16:07:02;4.82;;;1.23;;
64225;SDS011;50545;56.064;26.178;2023-03-25T16:09:32;4.53;;;1.45;;
64225;SDS011;50545;56.064;26.178;2023-03-25T16:12:07;2.30;;;1.40;;
64225;SDS011;50545;56.064;26.178;2023-03-25T16:14:36;2.50;;;1.55;;
64225;SDS011;50545;56.064;26.178;2023-03-25T16:17:05;3.53;;;1.27;;
64225;SDS011;50545;56.064;26.178;2023-03-25T16:24:47;4.90;;;1.63;;
64225;SDS011;50545;56.064;26.178;2023-03-25T16:27:22;3.47;;;1.40;;
64225;SDS011;50545;56.064;26.178;2023-03-25T16:29:52;3.75;;;1.50;;
64225;SDS011;50545;56.064;26.178;2023-03-25T16:32:25;2.78;;;1.45;;
64225;SDS011;50545;56.064;26.178;2023-03-25T16:34:58;1.80;;;1.20;;
64225;SDS011;50545;56.064;26.178;2023-03-25T16:37:26;1.83;;;1.10;;
64225;SDS011;50545;56.064;26.178;2023-03-25T16:39:54;5.07;;;1.52;;
64225;SDS011;50545;56.064;26.178;2023-03-25T16:42:25;2.28;;;1.10;;
64225;SDS011;50545;56.064;26.178;2023-03-25T16:45:01;1.02;;;0.75;;
64225;SDS011;50545;56.064;26.178;2023-03-25T16:47:32;2.35;;;0.80;;
64225;SDS011;50545;56.064;26.178;2023-03-25T16:50:00;1.60;;;0.90;;
64225;SDS011;50545;56.064;26.178;2023-03-25T16:52:28;2.05;;;1.08;;
64225;SDS011;50545;56.064;26.178;2023-03-25T16:57:27;1.40;;;1.15;;
64225;SDS011;50545;56.064;26.178;2023-03-25T17:00:02;2.13;;;1.13;;
64225;SDS011;50545;56.064;26.178;2023-03-25T17:02:43;5.60;;;1.83;;
64225;SDS011;50545;56.064;26.178;2023-03-25T17:05:26;2.03;;;1.50;;
64225;SDS011;50545;56.064;26.178;2023-03-25T17:07:55;2.28;;;1.35;;
64225;SDS011;50545;56.064;26.178;2023-03-25T17:10:30;3.17;;;1.48;;
64225;SDS011;50545;56.064;26.178;2023-03-25T17:13:31;1.52;;;1.33;;
64225;SDS011;50545;56.064;26.178;2023-03-25T17:16:04;1.20;;;1.10;;
64225;SDS011;50545;56.064;26.178;2023-03-25T17:18:33;4.47;;;1.67;;
64225;SDS011;50545;56.064;26.178;2023-03-25T17:21:02;3.95;;;1.30;;
64225;SDS011;50545;56.064;26.178;2023-03-25T17:26:13;4.47;;;1.67;;
64225;SDS011;50545;56.064;26.178;2023-03-25T17:28:59;3.10;;;1.50;;
64225;SDS011;50545;56.064;26.178;2023-03-25T17:31:35;3.78;;;1.60;;
64225;SDS011;50545;56.064;26.178;2023-03-25T17:34:12;2.08;;;1.23;;
64225;SDS011;50545;56.064;26.178;2023-03-25T17:36:45;2.92;;;1.67;;
64225;SDS011;50545;56.064;26.178;2023-03-25T17:39:18;2.67;;;1.52;;
64225;SDS011;50545;56.064;26.178;2023-03-25T17:41:54;3.53;;;1.70;;
64225;SDS011;50545;56.064;26.178;2023-03-25T17:44:33;1.75;;;0.90;;
64225;SDS011;50545;56.064;26.178;2023-03-25T17:47:02;3.90;;;1.20;;
64225;SDS011;50545;56.064;26.178;2023-03-25T17:49:31;2.50;;;1.48;;
64225;SDS011;50545;56.064;26.178;2023-03-25T17:51:58;2.20;;;1.50;;
64225;SDS011;50545;56.064;26.178;2023-03-25T17:54:26;2.67;;;1.45;;
64225;SDS011;50545;56.064;26.178;2023-03-25T17:56:54;2.80;;;1.40;;
64225;SDS011;50545;56.064;26.178;2023-03-25T17:59:22;2.42;;;1.40;;
64225;SDS011;50545;56.064;26.178;2023-03-25T18:01:51;1.40;;;0.93;;
64225;SDS011;50545;56.064;26.178;2023-03-25T18:04:19;2.13;;;1.23;;
64225;SDS011;50545;56.064;26.178;2023-03-25T18:06:47;1.77;;;1.25;;
64225;SDS011;50545;56.064;26.178;2023-03-25T18:09:15;2.05;;;1.17;;
64225;SDS011;50545;56.064;26.178;2023-03-25T18:11:52;1.38;;;1.00;;
64225;SDS011;50545;56.064;26.178;2023-03-25T18:14:21;2.25;;;1.20;;
64225;SDS011;50545;56.064;26.178;2023-03-25T18:16:49;1.83;;;1.30;;
64225;SDS011;50545;56.064;26.178;2023-03-25T18:19:19;1.88;;;1.20;;
64225;SDS011;50545;56.064;26.178;2023-03-25T18:21:48;2.53;;;1.45;;
64225;SDS011;50545;56.064;26.178;2023-03-25T18:24:16;1.40;;;1.25;;
64225;SDS011;50545;56.064;26.178;2023-03-25T18:26:44;3.05;;;1.23;;